This is the latest recevied weather packets stored in our database for station/object IW2LSY-11. If no packets are shown the sender has not sent any weather packets the latest 10 day(s).
| Time | Temp. | Humidity | Pressure | Rain* | Wind** | Luminosity | Snow |
|---|---|---|---|---|---|---|---|
| 1777767010 | 11.67° C | 76% | 1022 hPa | - | - | 475 W/m² | - |
| 1777766410 | 12.22° C | 72% | 1022 hPa | - | - | 475 W/m² | - |
| 1777765810 | 11.67° C | 75% | 1022.1 hPa | - | - | 476 W/m² | - |
| 1777765210 | 12.22° C | 73% | 1022.1 hPa | - | - | 476 W/m² | - |
| 1777764610 | 12.22° C | 72% | 1022.2 hPa | - | - | 476 W/m² | - |
| 1777764010 | 12.22° C | 73% | 1022.2 hPa | - | - | 477 W/m² | - |
| 1777763411 | 12.78° C | 72% | 1022.2 hPa | - | - | 478 W/m² | - |
| 1777762813 | 12.78° C | 70% | 1022.3 hPa | - | - | 479 W/m² | - |
| 1777762213 | 13.33° C | 69% | 1022.2 hPa | - | - | 478 W/m² | - |
| 1777761612 | 13.89° C | 66% | 1022.1 hPa | - | - | 479 W/m² | - |
| 1777761012 | 13.33° C | 68% | 1022 hPa | - | - | 480 W/m² | - |
| 1777760413 | 13.89° C | 64% | 1022 hPa | - | - | 480 W/m² | - |
| 1777759813 | 14.44° C | 62% | 1022 hPa | - | - | 480 W/m² | - |
| 1777759213 | 13.89° C | 63% | 1022 hPa | - | - | 481 W/m² | - |
| 1777758614 | 15° C | 60% | 1021.8 hPa | - | - | 481 W/m² | - |
| 1777758014 | 14.44° C | 62% | 1021.8 hPa | - | - | 481 W/m² | - |
| 1777757414 | 15° C | 60% | 1021.7 hPa | - | - | 482 W/m² | - |
| 1777756814 | 15° C | 59% | 1021.7 hPa | - | - | 483 W/m² | - |
| 1777756214 | 15.56° C | 56% | 1021.7 hPa | - | - | 483 W/m² | - |
| 1777755614 | 15.56° C | 56% | 1021.8 hPa | - | - | 483 W/m² | - |
| 1777755014 | 15.56° C | 54% | 1021.8 hPa | - | - | 484 W/m² | - |
| 1777754414 | 16.11° C | 53% | 1021.6 hPa | - | - | 484 W/m² | - |
| 1777753813 | 15.56° C | 54% | 1021.5 hPa | - | - | 485 W/m² | - |
| 1777753213 | 16.11° C | 53% | 1021.5 hPa | - | - | 485 W/m² | - |
| 1777752614 | 16.11° C | 51% | 1021.5 hPa | - | - | 485 W/m² | - |
* Rain since midnight (hover to see other rain measurements)
** Current wind speed in m/s (hover to see current wind gust speed)